Time;durP1;ratioP1;P1;durP2;ratioP2;P2;SDS_P1;SDS_P2;PMS_P1;PMS_P2;Temp;Humidity;BMP_temperature;BMP_pressure;BME280_temperature;BME280_humidity;BME280_pressure;Samples;Min_cycle;Max_cycle;Signal;HPM_P1;HPM_P2
2023/05/31 00:00:46;;;;;;;12.80;6.63;;;;;;;;;;4959588;29;20940;-76
2023/05/31 00:03:13;;;;;;;8.73;7.13;;;;;;;;;;4958730;29;20394;-76
2023/05/31 00:05:39;;;;;;;11.50;7.90;;;;;;;;;;4959583;29;20781;-76
2023/05/31 00:08:06;;;;;;;9.33;7.27;;;;;;;;;;4959013;29;20769;-76
2023/05/31 00:10:32;;;;;;;9.73;7.40;;;;;;;;;;4958983;29;20409;-75
2023/05/31 00:12:58;;;;;;;12.13;7.13;;;;;;;;;;4959836;29;20495;-76
2023/05/31 00:15:24;;;;;;;9.97;7.20;;;;;;;;;;4959649;29;20435;-75
2023/05/31 00:17:50;;;;;;;8.07;6.17;;;;;;;;;;4959017;29;20391;-75
2023/05/31 00:20:16;;;;;;;12.80;7.43;;;;;;;;;;4959416;29;20413;-75
2023/05/31 00:22:42;;;;;;;12.07;7.40;;;;;;;;;;4958925;29;20455;-75
2023/05/31 00:25:08;;;;;;;12.00;6.73;;;;;;;;;;4959703;29;20412;-76
2023/05/31 00:27:34;;;;;;;11.47;7.40;;;;;;;;;;4959375;29;20450;-75
2023/05/31 00:30:00;;;;;;;12.00;7.77;;;;;;;;;;4960007;29;20925;-75
2023/05/31 00:32:26;;;;;;;12.97;7.60;;;;;;;;;;4959634;29;20416;-76
2023/05/31 00:34:52;;;;;;;13.60;7.93;;;;;;;;;;4959388;29;20409;-75
2023/05/31 00:37:18;;;;;;;9.70;7.20;;;;;;;;;;4959821;29;20897;-75
2023/05/31 00:39:44;;;;;;;11.80;7.63;;;;;;;;;;4960054;29;20415;-76
2023/05/31 00:42:10;;;;;;;8.63;7.27;;;;;;;;;;4959329;29;20375;-76
2023/05/31 00:44:37;;;;;;;11.90;8.20;;;;;;;;;;4959993;29;20412;-75
2023/05/31 00:47:03;;;;;;;10.60;7.80;;;;;;;;;;4959323;29;20404;-75
2023/05/31 00:49:30;;;;;;;14.37;8.63;;;;;;;;;;4959282;29;20503;-75
2023/05/31 00:51:56;;;;;;;12.13;8.20;;;;;;;;;;4923457;29;1063498;-75
2023/05/31 00:54:23;;;;;;;13.17;8.63;;;;;;;;;;4959670;29;20222;-75
2023/05/31 00:56:49;;;;;;;14.30;8.37;;;;;;;;;;4960512;29;20409;-74
2023/05/31 00:59:15;;;;;;;10.77;7.83;;;;;;;;;;4959973;29;20864;-75
2023/05/31 01:01:42;;;;;;;9.50;7.83;;;;;;;;;;4960370;29;20776;-75
2023/05/31 01:04:08;;;;;;;11.03;7.10;;;;;;;;;;4960336;29;20904;-73
2023/05/31 01:06:34;;;;;;;11.00;8.70;;;;;;;;;;4960079;29;20409;-73
2023/05/31 01:09:04;;;;;;;14.53;8.07;;;;;;;;;;4959522;28;20423;-73
2023/05/31 01:11:35;;;;;;;15.03;9.07;;;;;;;;;;4959625;29;20415;-73
2023/05/31 01:14:14;;;;;;;12.43;9.13;;;;;;;;;;4959390;29;20880;-75
2023/05/31 01:16:46;;;;;;;13.63;8.97;;;;;;;;;;4959591;29;20762;-73
2023/05/31 01:19:15;;;;;;;16.77;8.70;;;;;;;;;;4959414;29;20405;-74
2023/05/31 01:21:51;;;;;;;13.07;8.40;;;;;;;;;;4959833;29;20533;-73
2023/05/31 01:24:26;;;;;;;13.20;9.40;;;;;;;;;;4959372;29;20511;-73
2023/05/31 01:26:55;;;;;;;12.53;8.33;;;;;;;;;;4959877;29;20396;-73
2023/05/31 01:29:23;;;;;;;13.17;9.23;;;;;;;;;;4959087;29;20407;-73
2023/05/31 01:31:51;;;;;;;11.30;8.60;;;;;;;;;;4959409;29;20459;-73
2023/05/31 01:34:17;;;;;;;15.33;9.67;;;;;;;;;;4959268;29;20862;-73
2023/05/31 01:36:43;;;;;;;17.07;9.10;;;;;;;;;;4959736;29;20889;-73
2023/05/31 01:39:10;;;;;;;14.83;9.30;;;;;;;;;;4959052;29;20416;-73
2023/05/31 01:41:38;;;;;;;14.17;8.47;;;;;;;;;;4958843;29;20415;-75
2023/05/31 01:44:05;;;;;;;14.20;9.10;;;;;;;;;;4958460;28;20432;-75
2023/05/31 01:46:31;;;;;;;15.50;9.47;;;;;;;;;;4958982;29;20772;-73
2023/05/31 01:48:57;;;;;;;11.80;7.67;;;;;;;;;;4959205;29;20413;-75
2023/05/31 01:51:24;;;;;;;17.30;9.53;;;;;;;;;;4959265;29;20464;-74
2023/05/31 01:53:50;;;;;;;19.20;10.23;;;;;;;;;;4959331;29;20480;-74
2023/05/31 01:56:16;;;;;;;17.03;8.53;;;;;;;;;;4959762;29;20405;-74
2023/05/31 01:58:44;;;;;;;13.80;8.70;;;;;;;;;;4959408;29;20392;-74
2023/05/31 02:01:11;;;;;;;13.03;8.07;;;;;;;;;;4959098;29;20395;-74
2023/05/31 02:03:40;;;;;;;13.03;9.23;;;;;;;;;;4959040;29;20417;-74
2023/05/31 02:06:07;;;;;;;14.63;9.77;;;;;;;;;;4959648;29;20409;-74
2023/05/31 02:08:33;;;;;;;14.13;8.95;;;;;;;;;;4958762;29;20413;-74
2023/05/31 02:10:59;;;;;;;13.52;8.82;;;;;;;;;;4959468;29;20184;-74
2023/05/31 02:13:25;;;;;;;14.03;7.83;;;;;;;;;;4958724;29;20276;-74
2023/05/31 02:15:51;;;;;;;16.33;9.47;;;;;;;;;;4959108;29;20387;-74
2023/05/31 02:18:17;;;;;;;13.43;8.27;;;;;;;;;;4959146;29;20421;-74
2023/05/31 02:20:44;;;;;;;17.27;9.53;;;;;;;;;;4958349;28;20409;-74
2023/05/31 02:23:10;;;;;;;18.50;9.40;;;;;;;;;;4958778;29;20424;-76
2023/05/31 02:25:36;;;;;;;15.07;8.60;;;;;;;;;;4958648;29;20462;-76
2023/05/31 02:28:02;;;;;;;12.57;8.73;;;;;;;;;;4959313;29;20416;-74
2023/05/31 02:30:30;;;;;;;16.70;9.23;;;;;;;;;;4959097;29;20479;-74
2023/05/31 02:32:56;;;;;;;17.03;9.90;;;;;;;;;;4958830;29;20465;-74
2023/05/31 02:35:22;;;;;;;15.70;9.80;;;;;;;;;;4958706;29;20405;-74
2023/05/31 02:37:48;;;;;;;15.30;9.10;;;;;;;;;;4959057;29;20417;-74
2023/05/31 02:40:14;;;;;;;16.40;9.67;;;;;;;;;;4959297;29;20419;-73
2023/05/31 02:42:42;;;;;;;13.60;8.87;;;;;;;;;;4958703;29;20390;-76
2023/05/31 02:45:09;;;;;;;11.80;8.93;;;;;;;;;;4958733;29;20416;-76
2023/05/31 02:47:36;;;;;;;12.17;9.57;;;;;;;;;;4958717;29;20412;-76
2023/05/31 02:50:02;;;;;;;19.60;10.13;;;;;;;;;;4958372;29;20515;-75
2023/05/31 02:52:28;;;;;;;16.83;10.00;;;;;;;;;;4958621;29;20400;-76
2023/05/31 02:54:54;;;;;;;13.47;8.33;;;;;;;;;;4958277;29;20413;-76
2023/05/31 02:57:20;;;;;;;19.03;10.03;;;;;;;;;;4957951;29;20908;-76
2023/05/31 02:59:47;;;;;;;15.97;10.13;;;;;;;;;;4958732;29;20421;-76
2023/05/31 03:02:13;;;;;;;15.73;10.77;;;;;;;;;;4957847;29;20489;-77
2023/05/31 03:04:41;;;;;;;16.10;9.60;;;;;;;;;;4959051;29;20453;-76
2023/05/31 03:07:07;;;;;;;12.30;9.77;;;;;;;;;;4958020;29;20451;-76
2023/05/31 03:09:33;;;;;;;16.08;10.00;;;;;;;;;;4958458;29;20626;-75
2023/05/31 03:12:00;;;;;;;13.63;9.50;;;;;;;;;;4958777;29;20216;-75
2023/05/31 03:14:26;;;;;;;13.00;9.83;;;;;;;;;;4958552;29;20479;-76
2023/05/31 03:16:52;;;;;;;20.80;10.47;;;;;;;;;;4958692;29;20413;-75
2023/05/31 03:19:18;;;;;;;15.13;10.60;;;;;;;;;;4958081;29;20413;-76
2023/05/31 03:21:44;;;;;;;15.30;10.13;;;;;;;;;;4958942;29;20416;-75
2023/05/31 03:24:10;;;;;;;15.05;9.50;;;;;;;;;;4958249;29;20268;-76
2023/05/31 03:26:36;;;;;;;16.80;11.13;;;;;;;;;;4958863;29;20193;-76
2023/05/31 03:29:03;;;;;;;13.43;10.00;;;;;;;;;;4958495;29;20204;-75
2023/05/31 03:31:29;;;;;;;19.48;10.20;;;;;;;;;;4958589;28;20177;-75
2023/05/31 03:33:55;;;;;;;16.20;9.70;;;;;;;;;;4961811;29;20224;-75
2023/05/31 03:36:21;;;;;;;14.50;9.93;;;;;;;;;;4962074;29;20413;-75
2023/05/31 03:38:47;;;;;;;14.17;9.63;;;;;;;;;;4961731;29;20213;-76
2023/05/31 03:41:13;;;;;;;20.13;10.17;;;;;;;;;;4961759;29;20428;-75
2023/05/31 03:43:39;;;;;;;18.37;10.83;;;;;;;;;;4961664;29;20855;-75
2023/05/31 03:46:05;;;;;;;13.10;9.30;;;;;;;;;;4962058;29;20502;-75
2023/05/31 03:48:31;;;;;;;18.30;10.20;;;;;;;;;;4961773;29;20412;-75
2023/05/31 03:50:57;;;;;;;15.50;9.73;;;;;;;;;;4961277;29;20503;-75
2023/05/31 03:53:25;;;;;;;17.27;10.10;;;;;;;;;;4961155;29;20464;-75
2023/05/31 03:55:51;;;;;;;16.00;10.15;;;;;;;;;;4962024;29;20196;-75
2023/05/31 03:58:17;;;;;;;18.23;11.05;;;;;;;;;;4961304;29;20192;-75
2023/05/31 04:00:43;;;;;;;17.50;9.77;;;;;;;;;;4961531;29;20272;-75
2023/05/31 04:03:13;;;;;;;18.90;11.20;;;;;;;;;;4961983;29;20185;-75
2023/05/31 04:05:39;;;;;;;20.03;10.60;;;;;;;;;;4961528;29;20653;-74
2023/05/31 04:08:05;;;;;;;15.80;11.02;;;;;;;;;;4961552;29;20401;-75
2023/05/31 04:10:31;;;;;;;19.67;11.25;;;;;;;;;;4961046;29;20192;-75
2023/05/31 04:12:57;;;;;;;17.63;10.45;;;;;;;;;;4961610;29;20200;-75
2023/05/31 04:15:23;;;;;;;17.13;10.47;;;;;;;;;;4960980;29;20263;-75
2023/05/31 04:17:49;;;;;;;17.87;11.20;;;;;;;;;;4961376;29;20401;-75
2023/05/31 04:20:16;;;;;;;17.43;10.53;;;;;;;;;;4960581;29;20420;-75
2023/05/31 04:22:42;;;;;;;22.92;11.52;;;;;;;;;;4961319;29;20417;-74
2023/05/31 04:25:12;;;;;;;15.15;10.07;;;;;;;;;;4961413;29;20252;-74
2023/05/31 04:27:40;;;;;;;17.52;11.25;;;;;;;;;;4944843;29;20212;-74
2023/05/31 04:30:06;;;;;;;20.15;10.95;;;;;;;;;;4961464;29;20221;-74
2023/05/31 04:32:34;;;;;;;18.05;10.23;;;;;;;;;;4960970;29;20195;-74
2023/05/31 04:35:03;;;;;;;20.48;11.63;;;;;;;;;;4961222;29;20183;-74
2023/05/31 04:37:29;;;;;;;21.15;12.80;;;;;;;;;;4960993;29;20188;-74
2023/05/31 04:39:59;;;;;;;19.92;11.45;;;;;;;;;;4961566;29;20192;-74
2023/05/31 04:42:28;;;;;;;19.63;12.43;;;;;;;;;;4960939;29;20231;-75
2023/05/31 04:44:57;;;;;;;22.90;12.88;;;;;;;;;;4960312;28;20184;-75
2023/05/31 04:47:28;;;;;;;23.35;12.27;;;;;;;;;;4960846;29;20189;-75
2023/05/31 04:49:56;;;;;;;22.53;13.30;;;;;;;;;;4961413;29;20315;-75
2023/05/31 04:52:22;;;;;;;21.75;12.48;;;;;;;;;;4960326;29;20401;-75
2023/05/31 04:54:48;;;;;;;19.75;13.70;;;;;;;;;;4961379;29;20181;-75
2023/05/31 04:57:15;;;;;;;24.00;14.30;;;;;;;;;;4960751;29;20177;-74
2023/05/31 04:59:41;;;;;;;30.20;15.17;;;;;;;;;;4960192;29;20440;-75
2023/05/31 05:02:07;;;;;;;21.20;14.17;;;;;;;;;;4943381;29;20503;-75
2023/05/31 05:04:33;;;;;;;21.57;14.10;;;;;;;;;;4959665;29;20420;-75
2023/05/31 05:06:59;;;;;;;22.40;13.70;;;;;;;;;;4960491;29;20923;-75
2023/05/31 05:09:26;;;;;;;26.90;14.30;;;;;;;;;;4959493;29;20409;-74
2023/05/31 05:11:54;;;;;;;25.80;15.30;;;;;;;;;;4960083;29;20858;-73
2023/05/31 05:14:20;;;;;;;24.43;14.17;;;;;;;;;;4960134;29;20503;-75
2023/05/31 05:16:46;;;;;;;19.70;13.93;;;;;;;;;;4960531;29;20499;-73
2023/05/31 05:19:12;;;;;;;24.07;14.57;;;;;;;;;;4959865;29;20499;-74
2023/05/31 05:21:37;;;;;;;23.37;15.37;;;;;;;;;;4959946;29;20390;-73
2023/05/31 05:24:03;;;;;;;24.43;14.33;;;;;;;;;;4960176;29;20416;-72
2023/05/31 05:26:29;;;;;;;24.00;14.63;;;;;;;;;;4958687;29;20489;-72
2023/05/31 05:28:56;;;;;;;19.07;13.30;;;;;;;;;;4960183;29;20760;-73
2023/05/31 05:31:21;;;;;;;27.83;16.17;;;;;;;;;;4959481;29;20511;-74
2023/05/31 05:33:47;;;;;;;21.40;14.40;;;;;;;;;;4959905;29;20518;-73
2023/05/31 05:36:13;;;;;;;22.50;14.40;;;;;;;;;;4959866;29;20424;-73
2023/05/31 05:38:40;;;;;;;24.60;15.20;;;;;;;;;;4959994;29;20413;-74
2023/05/31 05:41:10;;;;;;;27.23;14.60;;;;;;;;;;4960318;29;20471;-73
2023/05/31 05:43:36;;;;;;;21.07;14.73;;;;;;;;;;4959717;29;20428;-74
2023/05/31 05:46:02;;;;;;;23.00;14.17;;;;;;;;;;4959348;29;20405;-73
2023/05/31 05:48:28;;;;;;;22.43;12.30;;;;;;;;;;4959459;29;20405;-73
2023/05/31 05:50:55;;;;;;;20.30;13.57;;;;;;;;;;4959596;29;20890;-73
2023/05/31 05:53:21;;;;;;;25.50;13.43;;;;;;;;;;4959905;29;20826;-73
2023/05/31 05:55:51;;;;;;;18.27;12.80;;;;;;;;;;4959039;28;20397;-73
2023/05/31 05:58:18;;;;;;;21.97;14.07;;;;;;;;;;4942427;29;20921;-73
2023/05/31 06:00:47;;;;;;;18.43;12.73;;;;;;;;;;4959575;29;20467;-73
2023/05/31 06:03:13;;;;;;;18.83;12.73;;;;;;;;;;4959200;29;20777;-73
2023/05/31 06:05:40;;;;;;;16.93;12.03;;;;;;;;;;4959116;29;20412;-73
2023/05/31 06:08:06;;;;;;;23.67;12.60;;;;;;;;;;4959700;29;20413;-73
2023/05/31 06:10:32;;;;;;;18.27;13.00;;;;;;;;;;4959131;29;20431;-73
2023/05/31 06:12:58;;;;;;;17.37;12.00;;;;;;;;;;4959873;29;20456;-74
2023/05/31 06:15:24;;;;;;;16.70;11.97;;;;;;;;;;4958876;29;20415;-75
2023/05/31 06:17:52;;;;;;;20.60;10.97;;;;;;;;;;4959470;29;20408;-73
2023/05/31 06:20:18;;;;;;;16.53;11.27;;;;;;;;;;4958798;29;20394;-73
2023/05/31 06:22:44;;;;;;;21.43;10.93;;;;;;;;;;4959160;29;20416;-73
2023/05/31 06:25:10;;;;;;;16.50;10.60;;;;;;;;;;4959986;29;20407;-73
2023/05/31 06:27:36;;;;;;;18.10;10.67;;;;;;;;;;4959077;29;20400;-73
2023/05/31 06:30:02;;;;;;;13.93;10.17;;;;;;;;;;4959741;29;20395;-73
2023/05/31 06:32:29;;;;;;;17.00;9.80;;;;;;;;;;4959835;29;20376;-73
2023/05/31 06:34:55;;;;;;;12.53;7.20;;;;;;;;;;4959817;29;20453;-73
2023/05/31 06:37:21;;;;;;;12.20;7.53;;;;;;;;;;4959062;29;20913;-73
2023/05/31 06:39:48;;;;;;;12.70;7.73;;;;;;;;;;4958812;29;20496;-73
2023/05/31 06:42:14;;;;;;;13.93;6.80;;;;;;;;;;4959076;29;20905;-73
2023/05/31 06:44:43;;;;;;;10.70;7.20;;;;;;;;;;4958825;29;20414;-73
2023/05/31 06:47:09;;;;;;;8.80;6.73;;;;;;;;;;4958520;29;20897;-73
2023/05/31 06:49:35;;;;;;;14.63;6.40;;;;;;;;;;4958606;29;20383;-73
2023/05/31 06:52:02;;;;;;;10.00;6.13;;;;;;;;;;4958889;29;20474;-73
2023/05/31 06:54:28;;;;;;;18.37;7.20;;;;;;;;;;4959028;29;20454;-73
2023/05/31 06:56:54;;;;;;;8.70;5.50;;;;;;;;;;4959366;29;20882;-73
2023/05/31 06:59:20;;;;;;;11.63;5.50;;;;;;;;;;4958576;29;20418;-73
2023/05/31 07:01:46;;;;;;;8.90;7.10;;;;;;;;;;4958742;29;20837;-72
2023/05/31 07:04:12;;;;;;;9.00;5.53;;;;;;;;;;4958766;29;20397;-72
2023/05/31 07:06:38;;;;;;;13.10;6.10;;;;;;;;;;4958885;28;20503;-72
2023/05/31 07:09:05;;;;;;;11.60;6.93;;;;;;;;;;4962779;29;20737;-72
2023/05/31 07:11:31;;;;;;;9.80;5.37;;;;;;;;;;4961762;29;20464;-73
2023/05/31 07:14:02;;;;;;;13.30;6.50;;;;;;;;;;4962505;29;20458;-73
2023/05/31 07:16:28;;;;;;;10.00;5.90;;;;;;;;;;4962281;29;20383;-75
2023/05/31 07:18:54;;;;;;;14.47;6.00;;;;;;;;;;4962550;29;20520;-73
2023/05/31 07:21:20;;;;;;;7.50;5.83;;;;;;;;;;4962565;29;20482;-73
2023/05/31 07:23:46;;;;;;;9.90;6.00;;;;;;;;;;4962329;29;20430;-72
2023/05/31 07:26:12;;;;;;;12.23;6.17;;;;;;;;;;4929248;29;20428;-73
2023/05/31 07:28:38;;;;;;;8.93;5.47;;;;;;;;;;4962456;29;20428;-73
2023/05/31 07:31:04;;;;;;;23.67;8.87;;;;;;;;;;4962368;29;20408;-73
2023/05/31 07:33:30;;;;;;;12.57;5.90;;;;;;;;;;4961779;29;20446;-73
2023/05/31 07:36:02;;;;;;;9.40;5.07;;;;;;;;;;4961965;29;20384;-73
2023/05/31 07:38:28;;;;;;;11.07;5.63;;;;;;;;;;4962444;29;20840;-73
2023/05/31 07:40:54;;;;;;;32.57;8.97;;;;;;;;;;4962375;29;20402;-73
2023/05/31 07:43:21;;;;;;;11.80;6.90;;;;;;;;;;4961971;29;20523;-73
2023/05/31 07:45:47;;;;;;;7.03;4.70;;;;;;;;;;4961396;29;20427;-73
2023/05/31 07:48:13;;;;;;;14.97;6.20;;;;;;;;;;4961991;29;20375;-73
2023/05/31 07:50:39;;;;;;;9.93;4.93;;;;;;;;;;4961050;29;20445;-73
2023/05/31 07:53:05;;;;;;;8.40;5.10;;;;;;;;;;4961463;29;20447;-73
2023/05/31 07:55:31;;;;;;;7.20;4.97;;;;;;;;;;4960705;29;20513;-73
2023/05/31 07:57:57;;;;;;;9.40;4.83;;;;;;;;;;4961571;29;20495;-73
2023/05/31 08:00:24;;;;;;;8.73;5.27;;;;;;;;;;4961268;29;20489;-73
2023/05/31 08:02:50;;;;;;;9.70;5.93;;;;;;;;;;4961033;29;20474;-73
2023/05/31 08:05:16;;;;;;;6.97;4.87;;;;;;;;;;4960922;29;20409;-73
2023/05/31 08:07:42;;;;;;;5.07;4.13;;;;;;;;;;4960745;29;20392;-73
2023/05/31 08:10:09;;;;;;;6.90;4.50;;;;;;;;;;4960957;29;20913;-72
2023/05/31 08:12:35;;;;;;;10.67;3.90;;;;;;;;;;4960149;29;20391;-73
2023/05/31 08:15:00;;;;;;;6.97;4.53;;;;;;;;;;4960453;29;20387;-75
2023/05/31 08:17:26;;;;;;;5.33;3.87;;;;;;;;;;4960368;29;20412;-73
2023/05/31 08:19:52;;;;;;;7.20;4.40;;;;;;;;;;4959858;28;20409;-73
2023/05/31 08:22:18;;;;;;;10.23;4.33;;;;;;;;;;4960592;29;20952;-73
2023/05/31 08:24:44;;;;;;;11.20;4.67;;;;;;;;;;4959389;29;20428;-73
2023/05/31 08:27:10;;;;;;;6.37;4.47;;;;;;;;;;4959947;29;20413;-73
2023/05/31 08:29:36;;;;;;;9.80;4.57;;;;;;;;;;4959864;29;20488;-75
2023/05/31 08:32:02;;;;;;;9.20;3.83;;;;;;;;;;4960028;29;20420;-75
2023/05/31 08:34:28;;;;;;;6.80;3.70;;;;;;;;;;4959098;29;20471;-74
2023/05/31 08:36:55;;;;;;;8.20;3.50;;;;;;;;;;4959314;29;20409;-75
2023/05/31 08:39:21;;;;;;;8.27;3.83;;;;;;;;;;4959476;29;20912;-75
2023/05/31 08:42:03;;;;;;;8.03;4.13;;;;;;;;;;4958765;29;20409;-75
2023/05/31 08:44:29;;;;;;;8.40;3.67;;;;;;;;;;4959245;29;20467;-75
2023/05/31 08:47:18;;;;;;;5.80;3.67;;;;;;;;;;4958730;29;20412;-75
2023/05/31 08:49:45;;;;;;;7.40;3.60;;;;;;;;;;4958423;29;20491;-75
2023/05/31 08:52:11;;;;;;;7.10;3.90;;;;;;;;;;4958530;29;20409;-75
2023/05/31 08:54:37;;;;;;;7.60;3.77;;;;;;;;;;4958549;29;20605;-75
2023/05/31 08:57:03;;;;;;;5.50;3.33;;;;;;;;;;4958914;29;20417;-73
2023/05/31 08:59:29;;;;;;;7.03;2.67;;;;;;;;;;4958769;29;20416;-73
2023/05/31 09:01:57;;;;;;;11.63;2.97;;;;;;;;;;4957743;29;20412;-73
2023/05/31 09:04:23;;;;;;;6.97;3.70;;;;;;;;;;4958346;29;20393;-73
2023/05/31 09:06:50;;;;;;;5.10;2.97;;;;;;;;;;4957601;29;20771;-73
2023/05/31 09:09:16;;;;;;;9.80;3.13;;;;;;;;;;4957938;29;20409;-73
2023/05/31 09:11:42;;;;;;;5.50;3.23;;;;;;;;;;4957255;29;20423;-73
2023/05/31 09:14:08;;;;;;;4.67;2.80;;;;;;;;;;4957756;29;20464;-73
2023/05/31 09:16:35;;;;;;;7.23;2.80;;;;;;;;;;4957525;29;20503;-73
2023/05/31 09:19:02;;;;;;;6.13;3.10;;;;;;;;;;4957408;29;20421;-73
2023/05/31 09:21:28;;;;;;;4.73;2.43;;;;;;;;;;4957748;29;20479;-73
2023/05/31 09:23:55;;;;;;;6.63;2.80;;;;;;;;;;4956563;29;20417;-73
2023/05/31 09:26:21;;;;;;;4.40;2.80;;;;;;;;;;4956480;29;20421;-74
2023/05/31 09:28:51;;;;;;;7.00;2.70;;;;;;;;;;4955902;29;20474;-76
2023/05/31 09:31:19;;;;;;;3.37;2.63;;;;;;;;;;4956021;28;20428;-73
2023/05/31 09:33:51;;;;;;;5.30;2.50;;;;;;;;;;4955955;29;20464;-73
2023/05/31 09:36:25;;;;;;;3.70;2.50;;;;;;;;;;4956285;29;20870;-74
2023/05/31 09:38:51;;;;;;;4.17;2.60;;;;;;;;;;4955723;29;20452;-74
2023/05/31 09:41:21;;;;;;;4.93;2.83;;;;;;;;;;4955577;29;20923;-74
2023/05/31 09:43:47;;;;;;;6.10;2.97;;;;;;;;;;4955476;29;20420;-74
2023/05/31 09:46:17;;;;;;;3.67;2.40;;;;;;;;;;4955695;29;20483;-73
2023/05/31 09:48:56;;;;;;;6.93;2.80;;;;;;;;;;4955467;29;20421;-73
2023/05/31 09:51:22;;;;;;;7.30;2.80;;;;;;;;;;4955797;29;20459;-73
2023/05/31 09:53:51;;;;;;;4.90;2.20;;;;;;;;;;4955533;29;20468;-73
2023/05/31 09:56:18;;;;;;;3.10;2.30;;;;;;;;;;4956775;29;20417;-73
2023/05/31 09:58:44;;;;;;;3.93;3.00;;;;;;;;;;4955880;29;20401;-73
2023/05/31 10:01:11;;;;;;;4.57;2.50;;;;;;;;;;4956328;29;20412;-73
2023/05/31 10:03:37;;;;;;;5.87;3.13;;;;;;;;;;4956140;29;20413;-73
2023/05/31 10:06:04;;;;;;;4.90;2.70;;;;;;;;;;4956014;29;20411;-76
2023/05/31 10:08:33;;;;;;;2.50;2.10;;;;;;;;;;4955979;29;20428;-75
2023/05/31 10:11:00;;;;;;;5.70;2.23;;;;;;;;;;4955641;29;20416;-73
2023/05/31 10:13:29;;;;;;;5.20;2.00;;;;;;;;;;4955649;29;21015;-73
2023/05/31 10:16:06;;;;;;;4.73;1.83;;;;;;;;;;4955161;29;20417;-73
2023/05/31 10:18:32;;;;;;;3.80;2.00;;;;;;;;;;4955143;29;20432;-74
2023/05/31 10:21:00;;;;;;;4.40;2.30;;;;;;;;;;4954838;29;20413;-73
2023/05/31 10:23:27;;;;;;;4.97;2.50;;;;;;;;;;4955306;29;20413;-73
2023/05/31 10:26:06;;;;;;;7.77;2.40;;;;;;;;;;4955087;29;20404;-73
2023/05/31 10:28:36;;;;;;;2.50;2.13;;;;;;;;;;4955321;29;20448;-73
2023/05/31 10:31:03;;;;;;;2.47;1.93;;;;;;;;;;4954901;29;20416;-73
2023/05/31 10:33:30;;;;;;;2.70;2.10;;;;;;;;;;4955108;29;20467;-73
2023/05/31 10:36:00;;;;;;;4.50;1.90;;;;;;;;;;4955048;29;20773;-73
2023/05/31 10:38:32;;;;;;;5.23;2.10;;;;;;;;;;4955172;29;20404;-73
2023/05/31 10:41:07;;;;;;;5.80;2.60;;;;;;;;;;4954883;28;20412;-73
2023/05/31 10:43:37;;;;;;;3.00;2.17;;;;;;;;;;4958004;29;20926;-74
2023/05/31 10:46:07;;;;;;;4.50;2.53;;;;;;;;;;4958728;29;20431;-74
2023/05/31 10:48:35;;;;;;;2.60;1.90;;;;;;;;;;4959082;29;20443;-74
2023/05/31 10:51:02;;;;;;;4.27;2.30;;;;;;;;;;4958443;29;20476;-73
2023/05/31 10:53:30;;;;;;;4.40;1.93;;;;;;;;;;4958928;29;20467;-73
2023/05/31 10:56:02;;;;;;;2.57;1.90;;;;;;;;;;4958622;29;20412;-73
2023/05/31 10:58:36;;;;;;;5.03;2.70;;;;;;;;;;4958515;29;20448;-74
2023/05/31 11:01:04;;;;;;;5.10;1.83;;;;;;;;;;4958453;29;20408;-73
2023/05/31 11:03:31;;;;;;;5.87;2.13;;;;;;;;;;4958720;29;20948;-74
2023/05/31 11:06:09;;;;;;;4.03;2.10;;;;;;;;;;4957870;29;20404;-74
2023/05/31 11:08:35;;;;;;;4.33;2.20;;;;;;;;;;4958258;29;20444;-73
2023/05/31 11:11:20;;;;;;;4.30;2.10;;;;;;;;;;4958351;29;21139;-74
2023/05/31 11:13:56;;;;;;;3.60;2.27;;;;;;;;;;4958279;29;20590;-74
2023/05/31 11:16:22;;;;;;;3.27;1.77;;;;;;;;;;4958505;29;20543;-74
2023/05/31 11:18:48;;;;;;;2.30;1.70;;;;;;;;;;4958043;29;20495;-74
2023/05/31 11:21:33;;;;;;;3.50;2.00;;;;;;;;;;4957989;29;20975;-74
2023/05/31 11:23:59;;;;;;;3.67;1.90;;;;;;;;;;4957819;29;20931;-73
2023/05/31 11:26:25;;;;;;;4.70;2.13;;;;;;;;;;4958287;29;20404;-74
2023/05/31 11:28:56;;;;;;;3.97;2.30;;;;;;;;;;4957759;29;20495;-74
2023/05/31 11:31:40;;;;;;;2.93;1.83;;;;;;;;;;4958099;29;20508;-76
2023/05/31 11:34:19;;;;;;;3.20;1.70;;;;;;;;;;4957740;29;20460;-74
2023/05/31 11:36:46;;;;;;;3.10;2.00;;;;;;;;;;4957695;29;20444;-74
2023/05/31 11:39:12;;;;;;;4.20;2.07;;;;;;;;;;4957992;29;20816;-74
2023/05/31 11:41:38;;;;;;;4.43;1.80;;;;;;;;;;4958094;29;20499;-74
2023/05/31 11:44:11;;;;;;;4.40;2.10;;;;;;;;;;4957636;29;20965;-74
2023/05/31 11:46:40;;;;;;;2.60;2.07;;;;;;;;;;4958080;29;20409;-74
2023/05/31 11:49:06;;;;;;;3.17;1.90;;;;;;;;;;4957674;29;20413;-74
2023/05/31 11:51:32;;;;;;;2.37;1.60;;;;;;;;;;4957727;29;20810;-73
2023/05/31 11:53:59;;;;;;;2.43;2.00;;;;;;;;;;4956874;28;20467;-73
2023/05/31 11:56:33;;;;;;;3.70;2.03;;;;;;;;;;4957344;29;20443;-76
2023/05/31 11:58:59;;;;;;;3.83;1.97;;;;;;;;;;4956931;29;20991;-74
2023/05/31 12:01:26;;;;;;;2.83;1.77;;;;;;;;;;4957519;29;20412;-76
2023/05/31 12:04:01;;;;;;;2.60;1.90;;;;;;;;;;4957642;29;20752;-76
2023/05/31 12:06:28;;;;;;;4.00;2.37;;;;;;;;;;4957380;29;20495;-74
2023/05/31 12:08:54;;;;;;;2.50;2.03;;;;;;;;;;4957060;29;20409;-76
2023/05/31 12:11:21;;;;;;;2.37;1.60;;;;;;;;;;4957692;29;20762;-74
2023/05/31 12:13:47;;;;;;;4.00;1.60;;;;;;;;;;4956948;29;20535;-74
2023/05/31 12:16:13;;;;;;;6.90;2.30;;;;;;;;;;4957418;29;20499;-76
2023/05/31 12:18:39;;;;;;;4.67;2.40;;;;;;;;;;4957194;29;20495;-76
2023/05/31 12:21:10;;;;;;;3.13;2.23;;;;;;;;;;4957124;29;20435;-75
2023/05/31 12:23:55;;;;;;;3.00;2.07;;;;;;;;;;4957091;29;20456;-76
2023/05/31 12:26:22;;;;;;;3.20;2.00;;;;;;;;;;4957165;29;20468;-76
2023/05/31 12:28:48;;;;;;;2.70;1.90;;;;;;;;;;4956718;29;20426;-75
2023/05/31 12:31:24;;;;;;;4.97;2.40;;;;;;;;;;4957143;29;20417;-76
2023/05/31 12:34:00;;;;;;;4.20;1.80;;;;;;;;;;4956787;29;20578;-76
2023/05/31 12:36:26;;;;;;;4.17;1.83;;;;;;;;;;4956771;29;20821;-76
2023/05/31 12:38:59;;;;;;;3.53;2.37;;;;;;;;;;4956731;29;20408;-74
2023/05/31 12:41:26;;;;;;;4.07;2.13;;;;;;;;;;4957205;29;20413;-76
2023/05/31 12:43:53;;;;;;;6.30;2.17;;;;;;;;;;4956743;29;20424;-74
2023/05/31 12:46:19;;;;;;;2.63;2.37;;;;;;;;;;4956680;29;20770;-74
2023/05/31 12:48:47;;;;;;;5.90;2.60;;;;;;;;;;4956468;29;20413;-74
2023/05/31 12:51:13;;;;;;;4.90;2.33;;;;;;;;;;4956604;29;20475;-74
2023/05/31 12:53:40;;;;;;;7.27;2.80;;;;;;;;;;4956330;29;21119;-74
2023/05/31 12:56:06;;;;;;;4.83;2.63;;;;;;;;;;4956452;29;20875;-76
2023/05/31 12:58:32;;;;;;;3.30;2.10;;;;;;;;;;4956432;29;20480;-74
2023/05/31 13:00:58;;;;;;;6.37;3.10;;;;;;;;;;4956014;29;20421;-74
2023/05/31 13:03:24;;;;;;;4.00;2.70;;;;;;;;;;4956552;29;20798;-74
2023/05/31 13:05:50;;;;;;;5.53;2.97;;;;;;;;;;4955342;28;20425;-75
2023/05/31 13:08:16;;;;;;;3.73;2.50;;;;;;;;;;4956540;29;20499;-74
2023/05/31 13:10:42;;;;;;;6.40;2.90;;;;;;;;;;4956276;29;20409;-74
2023/05/31 13:13:08;;;;;;;6.87;3.23;;;;;;;;;;4955851;29;20519;-74
2023/05/31 13:15:34;;;;;;;6.40;2.50;;;;;;;;;;4956022;29;20413;-76
2023/05/31 13:18:00;;;;;;;5.30;2.53;;;;;;;;;;4956024;29;20426;-76
2023/05/31 13:20:26;;;;;;;8.20;2.70;;;;;;;;;;4956207;29;20411;-76
2023/05/31 13:22:52;;;;;;;6.50;2.80;;;;;;;;;;4955853;29;20415;-76
2023/05/31 13:25:18;;;;;;;5.03;2.80;;;;;;;;;;4956288;29;20539;-76
2023/05/31 13:27:44;;;;;;;4.70;2.40;;;;;;;;;;4956153;29;20405;-76
2023/05/31 13:30:11;;;;;;;3.07;2.30;;;;;;;;;;4955872;29;20444;-74
2023/05/31 13:32:37;;;;;;;6.80;2.80;;;;;;;;;;4955678;29;20416;-74
2023/05/31 13:35:04;;;;;;;4.87;3.00;;;;;;;;;;4955598;29;20867;-75
2023/05/31 13:37:30;;;;;;;7.87;2.53;;;;;;;;;;4955736;29;20465;-74
2023/05/31 13:39:57;;;;;;;5.60;2.33;;;;;;;;;;4955370;29;20499;-74
2023/05/31 13:42:23;;;;;;;5.90;2.80;;;;;;;;;;4955808;29;20412;-74
2023/05/31 13:44:49;;;;;;;3.80;2.73;;;;;;;;;;4955560;29;20409;-74
2023/05/31 13:47:16;;;;;;;6.13;2.83;;;;;;;;;;4955162;29;20413;-74
2023/05/31 13:49:42;;;;;;;5.53;2.50;;;;;;;;;;4955345;29;20429;-74
2023/05/31 13:52:09;;;;;;;5.07;2.93;;;;;;;;;;4955505;29;20421;-75
2023/05/31 13:54:35;;;;;;;4.70;2.60;;;;;;;;;;4955635;29;20527;-74
2023/05/31 13:57:03;;;;;;;6.00;2.87;;;;;;;;;;4955211;29;20483;-74
2023/05/31 13:59:29;;;;;;;6.87;2.40;;;;;;;;;;4955370;29;20488;-75
2023/05/31 14:01:55;;;;;;;8.53;2.80;;;;;;;;;;4955214;29;20912;-74
2023/05/31 14:04:22;;;;;;;3.80;3.00;;;;;;;;;;4955355;29;20503;-74
2023/05/31 14:06:48;;;;;;;4.70;2.50;;;;;;;;;;4955491;29;20408;-75
2023/05/31 14:09:14;;;;;;;3.60;2.60;;;;;;;;;;4955079;29;20405;-74
2023/05/31 14:11:41;;;;;;;6.60;3.03;;;;;;;;;;4955531;29;20415;-74
2023/05/31 14:14:07;;;;;;;5.37;2.53;;;;;;;;;;4954910;29;20515;-75
2023/05/31 14:16:34;;;;;;;4.77;2.70;;;;;;;;;;4955309;28;20405;-75
2023/05/31 14:19:00;;;;;;;4.50;2.63;;;;;;;;;;4955114;29;20409;-74
2023/05/31 14:21:26;;;;;;;5.20;2.57;;;;;;;;;;4955031;29;20827;-75
2023/05/31 14:23:52;;;;;;;3.30;2.33;;;;;;;;;;4955002;29;20479;-75
2023/05/31 14:26:18;;;;;;;3.17;2.60;;;;;;;;;;4954898;29;20767;-74
2023/05/31 14:28:44;;;;;;;8.70;2.73;;;;;;;;;;4954969;29;20409;-74
2023/05/31 14:31:10;;;;;;;3.03;2.50;;;;;;;;;;4954850;29;20412;-75
2023/05/31 14:33:39;;;;;;;5.53;2.30;;;;;;;;;;4955002;29;20476;-75